Time;durP1;ratioP1;P1;durP2;ratioP2;P2;SDS_P1;SDS_P2;PMS_P1;PMS_P2;Temp;Humidity;BMP_temperature;BMP_pressure;BME280_temperature;BME280_humidity;BME280_pressure;Samples;Min_cycle;Max_cycle;Signal;HPM_P1;HPM_P2
2023/05/27 00:01:04;;;;;;;;;;;;;;;;;;4972633;28;19921;-60
2023/05/27 00:03:30;;;;;;;;;;;;;;;;;;4970281;28;20816;-60
2023/05/27 00:05:58;;;;;;;;;;;;;;;;;;4985144;28;19929;-60
2023/05/27 00:08:26;;;;;;;;;;;;;;;;;;4982836;28;20685;-60
2023/05/27 00:10:51;;;;;;;;;;;;;;;;;;4983379;28;19929;-61
2023/05/27 00:13:16;;;;;;;;;;;;;;;;;;4967263;28;20629;-60
2023/05/27 00:15:47;;;;;;;;;;;;;;;;;;4983034;28;19922;-60
2023/05/27 00:18:12;;;;;;;;;;;;;;;;;;4970760;28;19921;-60
2023/05/27 00:20:38;;;;;;;;;;;;;;;;;;4985317;28;19984;-60
2023/05/27 00:23:06;;;;;;;;;;;;;;;;;;4967153;28;19929;-60
2023/05/27 00:25:31;;;;;;;;;;;;;;;;;;4986412;28;19917;-60
2023/05/27 00:27:56;;;;;;;;;;;;;;;;;;4984011;28;19921;-60
2023/05/27 00:30:25;;;;;;;;;;;;;;;;;;4982867;28;19929;-60
2023/05/27 00:32:50;;;;;;;;;;;;;;;;;;4974267;28;19957;-60
2023/05/27 00:35:15;;;;;;;;;;;;;;;;;;4965453;28;19922;-60
2023/05/27 00:37:43;;;;;;;;;;;;;;;;;;4983972;28;19936;-60
2023/05/27 00:40:08;;;;;;;;;;;;;;;;;;4967613;28;20153;-60
2023/05/27 00:42:34;;;;;;;;;;;;;;;;;;4985702;28;19921;-60
2023/05/27 00:45:02;;;;;;;;;;;;;;;;;;4984771;28;19918;-60
2023/05/27 00:47:27;;;;;;;;;;;;;;;;;;4968455;28;19922;-60
2023/05/27 00:49:55;;;;;;;;;;;;;;;;;;4983543;28;19928;-60
2023/05/27 00:52:20;;;;;;;;;;;;;;;;;;4968425;28;20497;-60
2023/05/27 00:54:46;;;;;;;;;;;;;;;;;;4968407;28;19968;-60
2023/05/27 00:57:11;;;;;;;;;;;;;;;;;;4965817;28;19925;-61
2023/05/27 00:59:39;;;;;;;;;;;;;;;;;;4982945;28;20479;-60
2023/05/27 01:02:07;;;;;;;;;;;;;;;;;;4983802;28;20340;-60
2023/05/27 01:04:32;;;;;;;;;;;;;;;;;;4967529;28;19918;-60
2023/05/27 01:06:58;;;;;;;;;;;;;;;;;;4969391;28;20909;-60
2023/05/27 01:09:23;;;;;;;;;;;;;;;;;;4960281;28;19934;-60
2023/05/27 01:11:51;;;;;;;;;;;;;;;;;;4970797;28;19918;-61
2023/05/27 01:14:19;;;;;;;;;;;;;;;;;;4981620;28;20246;-60
2023/05/27 01:16:48;;;;;;;;;;;;;;;;;;4983729;28;19925;-60
2023/05/27 01:19:14;;;;;;;;;;;;;;;;;;4969590;28;20766;-60
2023/05/27 01:21:44;;;;;;;;;;;;;;;;;;4974837;28;20016;-60
2023/05/27 01:24:10;;;;;;;;;;;;;;;;;;4972070;28;19971;-60
2023/05/27 01:26:35;;;;;;;;;;;;;;;;;;4959929;28;20363;-60
2023/05/27 01:29:00;;;;;;;;;;;;;;;;;;4989345;28;19925;-60
2023/05/27 01:31:26;;;;;;;;;;;;;;;;;;4988287;28;19925;-60
2023/05/27 01:33:54;;;;;;;;;;;;;;;;;;4986533;28;20599;-60
2023/05/27 01:36:20;;;;;;;;;;;;;;;;;;4970649;28;19929;-60
2023/05/27 01:38:45;;;;;;;;;;;;;;;;;;4968581;28;19924;-60
2023/05/27 01:41:13;;;;;;;;;;;;;;;;;;4987565;28;20617;-60
2023/05/27 01:43:40;;;;;;;;;;;;;;;;;;4972465;28;20258;-60
2023/05/27 01:46:08;;;;;;;;;;;;;;;;;;4985816;28;19921;-60
2023/05/27 01:48:36;;;;;;;;;;;;;;;;;;4978913;28;20320;-60
2023/05/27 01:51:01;;;;;;;;;;;;;;;;;;4971810;28;20329;-60
2023/05/27 01:53:27;;;;;;;;;;;;;;;;;;4980691;28;19926;-60
2023/05/27 01:55:55;;;;;;;;;;;;;;;;;;4970506;28;20066;-60
2023/05/27 01:58:20;;;;;;;;;;;;;;;;;;4973489;28;20479;-60
2023/05/27 02:00:45;;;;;;;;;;;;;;;;;;4963594;28;19990;-61
2023/05/27 02:03:13;;;;;;;;;;;;;;;;;;4985647;28;19924;-60
2023/05/27 02:05:40;;;;;;;;;;;;;;;;;;4972512;28;19926;-60
2023/05/27 02:08:11;;;;;;;;;;;;;;;;;;4977353;28;19928;-60
2023/05/27 02:10:36;;;;;;;;;;;;;;;;;;4986771;28;20292;-60
2023/05/27 02:13:02;;;;;;;;;;;;;;;;;;4987251;28;19918;-60
2023/05/27 02:15:31;;;;;;;;;;;;;;;;;;4973941;28;19969;-60
2023/05/27 02:17:56;;;;;;;;;;;;;;;;;;4961873;28;20032;-60
2023/05/27 02:20:22;;;;;;;;;;;;;;;;;;4985493;28;20558;-60
2023/05/27 02:22:47;;;;;;;;;;;;;;;;;;4972132;28;19925;-60
2023/05/27 02:25:15;;;;;;;;;;;;;;;;;;4986632;28;20205;-60
2023/05/27 02:27:41;;;;;;;;;;;;;;;;;;4985876;28;19922;-60
2023/05/27 02:30:07;;;;;;;;;;;;;;;;;;4985361;28;20720;-60
2023/05/27 02:32:35;;;;;;;;;;;;;;;;;;4983487;28;19922;-60
2023/05/27 02:35:03;;;;;;;;;;;;;;;;;;4971227;28;20023;-60
2023/05/27 02:37:28;;;;;;;;;;;;;;;;;;4986720;28;19957;-60
2023/05/27 02:39:55;;;;;;;;;;;;;;;;;;4977590;28;19922;-60
2023/05/27 02:42:23;;;;;;;;;;;;;;;;;;4987319;28;20056;-60
2023/05/27 02:44:48;;;;;;;;;;;;;;;;;;4977825;28;20012;-60
2023/05/27 02:47:16;;;;;;;;;;;;;;;;;;4970552;28;19930;-61
2023/05/27 02:49:44;;;;;;;;;;;;;;;;;;4982582;28;20514;-60
2023/05/27 02:55:26;;;;;;;;;;;;;;;;;;4966144;28;20003;-60
2023/05/27 02:57:54;;;;;;;;;;;;;;;;;;4986585;28;19922;-60
2023/05/27 03:00:22;;;;;;;;;;;;;;;;;;4968507;28;19921;-61
2023/05/27 03:02:48;;;;;;;;;;;;;;;;;;4972949;28;19930;-60
2023/05/27 03:05:13;;;;;;;;;;;;;;;;;;4963118;28;19965;-61
2023/05/27 03:07:43;;;;;;;;;;;;;;;;;;4970993;28;19917;-61
2023/05/27 03:10:13;;;;;;;;;;;;;;;;;;4970745;28;20254;-60
2023/05/27 03:12:39;;;;;;;;;;;;;;;;;;4986116;28;19922;-60
2023/05/27 03:15:06;;;;;;;;;;;;;;;;;;4984563;28;19945;-60
2023/05/27 03:17:35;;;;;;;;;;;;;;;;;;4969919;28;19924;-61
2023/05/27 03:20:03;;;;;;;;;;;;;;;;;;4983478;28;20082;-60
2023/05/27 03:22:34;;;;;;;;;;;;;;;;;;4970415;28;20015;-60
2023/05/27 03:25:00;;;;;;;;;;;;;;;;;;4968404;28;19922;-61
2023/05/27 03:27:27;;;;;;;;;;;;;;;;;;4971070;28;19922;-61
2023/05/27 03:29:55;;;;;;;;;;;;;;;;;;4984893;28;19976;-61
2023/05/27 03:32:20;;;;;;;;;;;;;;;;;;4967014;28;19968;-60
2023/05/27 03:34:46;;;;;;;;;;;;;;;;;;4984304;28;20340;-60
2023/05/27 03:37:14;;;;;;;;;;;;;;;;;;4967845;28;19937;-61
2023/05/27 03:39:42;;;;;;;;;;;;;;;;;;4951408;28;20376;-61
2023/05/27 03:42:07;;;;;;;;;;;;;;;;;;4965709;28;19930;-61
2023/05/27 03:44:38;;;;;;;;;;;;;;;;;;4966989;28;19917;-61
2023/05/27 03:47:06;;;;;;;;;;;;;;;;;;4969034;28;19985;-61
2023/05/27 03:49:37;;;;;;;;;;;;;;;;;;4968858;28;19928;-60
2023/05/27 03:58:35;;;;;;;;;;;;;;;;;;4967494;28;20285;-60
2023/05/27 04:01:05;;;;;;;;;;;;;;;;;;4966492;28;19926;-60
2023/05/27 04:03:31;;;;;;;;;;;;;;;;;;4966221;28;20223;-61
2023/05/27 04:09:16;;;;;;;;;;;;;;;;;;4970360;28;19933;-61
2023/05/27 04:11:44;;;;;;;;;;;;;;;;;;4948368;28;19922;-61
2023/05/27 04:14:12;;;;;;;;;;;;;;;;;;4944413;28;19988;-61
2023/05/27 04:16:41;;;;;;;;;;;;;;;;;;4966788;28;19993;-61
2023/05/27 04:19:07;;;;;;;;;;;;;;;;;;4941864;28;19922;-60
2023/05/27 04:21:40;;;;;;;;;;;;;;;;;;4949403;28;19921;-61
2023/05/27 04:24:06;;;;;;;;;;;;;;;;;;4965332;28;20859;-61
2023/05/27 04:26:32;;;;;;;;;;;;;;;;;;4951108;28;19918;-61
2023/05/27 04:29:01;;;;;;;;;;;;;;;;;;4968725;28;20273;-61
2023/05/27 04:31:28;;;;;;;;;;;;;;;;;;4951646;28;19957;-61
2023/05/27 04:33:54;;;;;;;;;;;;;;;;;;4967225;28;19918;-61
2023/05/27 04:36:19;;;;;;;;;;;;;;;;;;4968632;28;20005;-61
2023/05/27 04:38:45;;;;;;;;;;;;;;;;;;4967678;28;20984;-60
2023/05/27 04:41:10;;;;;;;;;;;;;;;;;;4966694;28;19946;-61
2023/05/27 04:43:35;;;;;;;;;;;;;;;;;;4967721;28;19922;-60
2023/05/27 04:46:01;;;;;;;;;;;;;;;;;;4967945;28;20305;-61
2023/05/27 04:48:27;;;;;;;;;;;;;;;;;;4965230;28;19981;-60
2023/05/27 04:50:57;;;;;;;;;;;;;;;;;;4939189;28;20579;-60
2023/05/27 04:53:23;;;;;;;;;;;;;;;;;;4972032;28;20008;-60
2023/05/27 04:55:51;;;;;;;;;;;;;;;;;;4947299;28;20538;-60
2023/05/27 04:58:19;;;;;;;;;;;;;;;;;;4969815;28;19922;-60
2023/05/27 05:03:20;;;;;;;;;;;;;;;;;;4952982;28;20065;-60
2023/05/27 05:05:45;;;;;;;;;;;;;;;;;;4972887;28;20189;-59
2023/05/27 05:08:10;;;;;;;;;;;;;;;;;;4971774;28;20093;-60
2023/05/27 05:10:36;;;;;;;;;;;;;;;;;;4972273;28;19922;-60
2023/05/27 05:13:04;;;;;;;;;;;;;;;;;;4944289;28;19924;-60
2023/05/27 05:15:30;;;;;;;;;;;;;;;;;;4974104;28;19918;-60
2023/05/27 05:17:58;;;;;;;;;;;;;;;;;;4972526;28;19960;-60
2023/05/27 05:20:26;;;;;;;;;;;;;;;;;;4970779;28;20366;-60
2023/05/27 05:22:52;;;;;;;;;;;;;;;;;;4955812;28;19936;-60
2023/05/27 05:25:17;;;;;;;;;;;;;;;;;;4971874;28;19928;-60
2023/05/27 05:27:42;;;;;;;;;;;;;;;;;;4972596;28;19928;-60
2023/05/27 05:30:10;;;;;;;;;;;;;;;;;;4951136;28;19917;-60
2023/05/27 05:32:36;;;;;;;;;;;;;;;;;;4970927;28;20028;-60
2023/05/27 05:35:06;;;;;;;;;;;;;;;;;;4968738;28;19925;-60
2023/05/27 05:37:32;;;;;;;;;;;;;;;;;;4974320;28;19936;-60
2023/05/27 05:39:57;;;;;;;;;;;;;;;;;;4973701;28;20492;-60
2023/05/27 05:42:24;;;;;;;;;;;;;;;;;;4973132;28;20027;-61
2023/05/27 05:44:49;;;;;;;;;;;;;;;;;;4970150;28;19968;-61
2023/05/27 05:47:17;;;;;;;;;;;;;;;;;;4956385;28;19961;-60
2023/05/27 05:49:43;;;;;;;;;;;;;;;;;;4972745;28;20005;-59
2023/05/27 05:52:11;;;;;;;;;;;;;;;;;;4959006;28;19917;-60
2023/05/27 05:54:39;;;;;;;;;;;;;;;;;;4965818;28;20313;-60
2023/05/27 05:57:10;;;;;;;;;;;;;;;;;;4969098;28;19944;-60
2023/05/27 05:59:35;;;;;;;;;;;;;;;;;;4967077;28;20323;-60
2023/05/27 06:02:00;;;;;;;;;;;;;;;;;;4946161;28;19922;-61
2023/05/27 06:04:28;;;;;;;;;;;;;;;;;;4967939;28;19926;-61
2023/05/27 06:06:56;;;;;;;;;;;;;;;;;;4970775;28;19918;-61
2023/05/27 06:09:21;;;;;;;;;;;;;;;;;;4961185;28;21950;-60
2023/05/27 06:11:50;;;;;;;;;;;;;;;;;;4942722;28;20386;-61
2023/05/27 06:14:16;;;;;;;;;;;;;;;;;;4970221;28;19929;-60
2023/05/27 06:16:44;;;;;;;;;;;;;;;;;;4942094;28;19944;-61
2023/05/27 06:19:09;;;;;;;;;;;;;;;;;;4952165;28;20374;-61
2023/05/27 06:21:35;;;;;;;;;;;;;;;;;;4970289;28;20091;-61
2023/05/27 06:24:00;;;;;;;;;;;;;;;;;;4960756;28;19925;-61
2023/05/27 06:26:28;;;;;;;;;;;;;;;;;;4970401;28;19964;-61
2023/05/27 06:28:54;;;;;;;;;;;;;;;;;;4960405;28;19996;-61
2023/05/27 06:31:19;;;;;;;;;;;;;;;;;;4972942;28;19976;-61
2023/05/27 06:33:45;;;;;;;;;;;;;;;;;;4958111;28;19922;-61
2023/05/27 06:36:10;;;;;;;;;;;;;;;;;;4948210;28;19925;-61
2023/05/27 06:38:36;;;;;;;;;;;;;;;;;;4967966;28;19926;-61
2023/05/27 06:41:01;;;;;;;;;;;;;;;;;;4953752;28;19925;-61
2023/05/27 06:43:29;;;;;;;;;;;;;;;;;;4970454;28;19960;-60
2023/05/27 06:45:57;;;;;;;;;;;;;;;;;;4970357;28;20020;-61
2023/05/27 06:48:22;;;;;;;;;;;;;;;;;;4954591;28;20028;-61
2023/05/27 06:50:50;;;;;;;;;;;;;;;;;;4970304;28;19925;-61
2023/05/27 06:53:15;;;;;;;;;;;;;;;;;;4969024;28;19944;-61
2023/05/27 06:55:41;;;;;;;;;;;;;;;;;;4951429;28;19940;-61
2023/05/27 06:58:09;;;;;;;;;;;;;;;;;;4968310;28;20024;-61
2023/05/27 07:00:35;;;;;;;;;;;;;;;;;;4969109;28;19922;-61
2023/05/27 07:03:00;;;;;;;;;;;;;;;;;;4971615;28;19979;-61
2023/05/27 07:05:25;;;;;;;;;;;;;;;;;;4967069;28;20301;-60
2023/05/27 07:07:53;;;;;;;;;;;;;;;;;;4967765;28;20026;-61
2023/05/27 07:13:35;;;;;;;;;;;;;;;;;;4970842;28;20013;-62
2023/05/27 07:16:06;;;;;;;;;;;;;;;;;;4968539;28;19928;-62
2023/05/27 07:18:34;;;;;;;;;;;;;;;;;;4966977;28;19921;-61
2023/05/27 07:21:02;;;;;;;;;;;;;;;;;;4967381;28;19929;-61
2023/05/27 07:23:30;;;;;;;;;;;;;;;;;;4967625;28;19921;-61
2023/05/27 07:26:05;;;;;;;;;;;;;;;;;;4965005;28;19922;-62
2023/05/27 07:28:30;;;;;;;;;;;;;;;;;;4953478;28;19917;-61
2023/05/27 07:30:55;;;;;;;;;;;;;;;;;;4969541;28;19980;-62
2023/05/27 07:33:21;;;;;;;;;;;;;;;;;;4970562;28;20030;-60
2023/05/27 07:35:49;;;;;;;;;;;;;;;;;;4967883;28;19922;-60
2023/05/27 07:38:14;;;;;;;;;;;;;;;;;;4982773;28;19926;-60
2023/05/27 07:40:42;;;;;;;;;;;;;;;;;;4967346;28;19922;-60
2023/05/27 07:43:08;;;;;;;;;;;;;;;;;;4973842;28;19948;-61
2023/05/27 07:45:38;;;;;;;;;;;;;;;;;;4968868;28;20023;-60
2023/05/27 07:48:22;;;;;;;;;;;;;;;;;;4968810;28;19971;-61
2023/05/27 07:50:47;;;;;;;;;;;;;;;;;;4968485;28;20323;-61
2023/05/27 07:53:12;;;;;;;;;;;;;;;;;;4964798;28;20459;-61
2023/05/27 07:55:37;;;;;;;;;;;;;;;;;;4968795;28;20747;-61
2023/05/27 07:58:06;;;;;;;;;;;;;;;;;;4969852;28;19922;-61
2023/05/27 08:00:32;;;;;;;;;;;;;;;;;;4986649;28;19937;-61
2023/05/27 08:02:57;;;;;;;;;;;;;;;;;;4968057;28;19999;-60
2023/05/27 08:05:25;;;;;;;;;;;;;;;;;;4981972;28;20471;-61
2023/05/27 08:07:50;;;;;;;;;;;;;;;;;;4967755;28;19918;-61
2023/05/27 08:10:16;;;;;;;;;;;;;;;;;;4965779;28;20036;-61
2023/05/27 08:12:41;;;;;;;;;;;;;;;;;;4968203;28;19929;-61
2023/05/27 08:15:06;;;;;;;;;;;;;;;;;;4983962;28;19922;-61
2023/05/27 08:17:31;;;;;;;;;;;;;;;;;;4984836;28;20012;-61
2023/05/27 08:19:57;;;;;;;;;;;;;;;;;;4970114;28;20012;-61
2023/05/27 08:22:22;;;;;;;;;;;;;;;;;;4967155;28;20057;-61
2023/05/27 08:24:49;;;;;;;;;;;;;;;;;;4969656;28;19960;-61
2023/05/27 08:27:17;;;;;;;;;;;;;;;;;;4958327;28;19918;-62
2023/05/27 08:29:42;;;;;;;;;;;;;;;;;;4969079;28;20531;-62
2023/05/27 08:32:08;;;;;;;;;;;;;;;;;;4967042;28;20028;-62
2023/05/27 08:34:33;;;;;;;;;;;;;;;;;;4967174;28;19922;-61
2023/05/27 08:36:59;;;;;;;;;;;;;;;;;;4967726;28;19926;-61
2023/05/27 08:39:25;;;;;;;;;;;;;;;;;;4969701;28;19929;-61
2023/05/27 08:41:50;;;;;;;;;;;;;;;;;;4950917;28;19921;-61
2023/05/27 08:44:18;;;;;;;;;;;;;;;;;;4964207;28;21875;-61
2023/05/27 08:46:43;;;;;;;;;;;;;;;;;;4966078;28;19918;-61
2023/05/27 08:49:09;;;;;;;;;;;;;;;;;;4950263;28;19921;-60
2023/05/27 08:51:35;;;;;;;;;;;;;;;;;;4939827;28;19964;-60
2023/05/27 08:54:00;;;;;;;;;;;;;;;;;;4965327;28;19921;-61
2023/05/27 08:56:28;;;;;;;;;;;;;;;;;;4941001;28;19965;-61
2023/05/27 08:58:54;;;;;;;;;;;;;;;;;;4968952;28;20036;-61
2023/05/27 09:01:22;;;;;;;;;;;;;;;;;;4967750;28;19972;-62
2023/05/27 09:03:51;;;;;;;;;;;;;;;;;;4966839;28;19998;-62
2023/05/27 09:06:16;;;;;;;;;;;;;;;;;;4963902;28;20009;-62
2023/05/27 09:08:42;;;;;;;;;;;;;;;;;;4965417;28;19991;-62
2023/05/27 09:11:08;;;;;;;;;;;;;;;;;;4964974;28;20423;-62
2023/05/27 09:13:33;;;;;;;;;;;;;;;;;;4949634;28;20008;-62
2023/05/27 09:16:01;;;;;;;;;;;;;;;;;;4967393;28;20016;-62
2023/05/27 09:18:29;;;;;;;;;;;;;;;;;;4968560;28;20585;-62
2023/05/27 09:20:54;;;;;;;;;;;;;;;;;;4950843;28;19917;-62
2023/05/27 09:23:19;;;;;;;;;;;;;;;;;;4952859;28;20651;-63
2023/05/27 09:25:48;;;;;;;;;;;;;;;;;;4967029;28;19922;-62
2023/05/27 09:28:13;;;;;;;;;;;;;;;;;;4950294;28;20898;-62
2023/05/27 09:30:38;;;;;;;;;;;;;;;;;;4966730;28;19933;-62
2023/05/27 09:33:04;;;;;;;;;;;;;;;;;;4964247;28;19972;-62
2023/05/27 09:35:30;;;;;;;;;;;;;;;;;;4968295;28;19963;-63
2023/05/27 09:37:58;;;;;;;;;;;;;;;;;;4976746;28;19926;-62
2023/05/27 09:40:24;;;;;;;;;;;;;;;;;;4986648;28;20396;-62
2023/05/27 09:42:52;;;;;;;;;;;;;;;;;;4970108;28;19917;-62
2023/05/27 09:45:20;;;;;;;;;;;;;;;;;;4970948;28;19928;-62
2023/05/27 09:47:45;;;;;;;;;;;;;;;;;;4976497;28;19918;-63
2023/05/27 09:50:11;;;;;;;;;;;;;;;;;;4971899;28;19921;-62
2023/05/27 09:52:37;;;;;;;;;;;;;;;;;;4977781;28;19944;-62
2023/05/27 09:55:06;;;;;;;;;;;;;;;;;;4985652;28;20281;-62
2023/05/27 09:57:31;;;;;;;;;;;;;;;;;;4972971;28;20377;-62
2023/05/27 09:59:59;;;;;;;;;;;;;;;;;;4969201;28;20085;-61
2023/05/27 10:02:27;;;;;;;;;;;;;;;;;;4972206;28;19991;-62
2023/05/27 10:04:52;;;;;;;;;;;;;;;;;;4985324;28;20989;-62
2023/05/27 10:07:22;;;;;;;;;;;;;;;;;;4971616;28;19928;-62
2023/05/27 10:09:50;;;;;;;;;;;;;;;;;;4986207;28;19918;-62
2023/05/27 10:12:16;;;;;;;;;;;;;;;;;;4977411;28;19922;-62
2023/05/27 10:14:44;;;;;;;;;;;;;;;;;;4969585;28;19925;-61
2023/05/27 10:17:09;;;;;;;;;;;;;;;;;;4968187;28;19918;-62
2023/05/27 10:19:37;;;;;;;;;;;;;;;;;;4984960;28;19929;-62
2023/05/27 10:22:02;;;;;;;;;;;;;;;;;;4970804;28;19965;-62
2023/05/27 10:24:28;;;;;;;;;;;;;;;;;;4984028;28;20691;-62
2023/05/27 10:26:53;;;;;;;;;;;;;;;;;;4970183;28;19918;-62
2023/05/27 10:29:18;;;;;;;;;;;;;;;;;;4971936;28;19918;-63
2023/05/27 10:31:43;;;;;;;;;;;;;;;;;;4968170;28;19957;-62
2023/05/27 10:34:09;;;;;;;;;;;;;;;;;;4985967;28;20411;-62
2023/05/27 10:36:36;;;;;;;;;;;;;;;;;;4984909;28;19941;-62
2023/05/27 10:39:04;;;;;;;;;;;;;;;;;;4972801;28;19925;-62
2023/05/27 10:41:30;;;;;;;;;;;;;;;;;;4968353;28;19921;-61
2023/05/27 10:43:56;;;;;;;;;;;;;;;;;;4984660;28;19989;-62
2023/05/27 10:46:24;;;;;;;;;;;;;;;;;;4970741;28;20052;-62
2023/05/27 10:48:50;;;;;;;;;;;;;;;;;;4977320;28;20089;-62
2023/05/27 10:51:17;;;;;;;;;;;;;;;;;;4970852;28;19984;-62
2023/05/27 10:53:48;;;;;;;;;;;;;;;;;;4969498;28;20032;-61
2023/05/27 10:56:13;;;;;;;;;;;;;;;;;;4985449;28;20719;-62
2023/05/27 10:58:41;;;;;;;;;;;;;;;;;;4970805;28;19932;-62
2023/05/27 11:01:06;;;;;;;;;;;;;;;;;;4969768;28;19922;-61
2023/05/27 11:03:31;;;;;;;;;;;;;;;;;;4969540;28;20496;-61
2023/05/27 11:06:00;;;;;;;;;;;;;;;;;;4970584;28;19964;-61
2023/05/27 11:08:28;;;;;;;;;;;;;;;;;;4969478;28;19976;-62
2023/05/27 11:10:56;;;;;;;;;;;;;;;;;;4986874;28;19921;-61
2023/05/27 11:13:24;;;;;;;;;;;;;;;;;;4959918;28;19973;-62
2023/05/27 11:15:52;;;;;;;;;;;;;;;;;;4986934;28;20491;-62
2023/05/27 11:18:23;;;;;;;;;;;;;;;;;;4984427;28;21029;-62
2023/05/27 11:20:50;;;;;;;;;;;;;;;;;;4969290;28;20068;-61
2023/05/27 11:23:16;;;;;;;;;;;;;;;;;;4984768;28;19922;-62
2023/05/27 11:25:41;;;;;;;;;;;;;;;;;;4975471;28;19925;-61
2023/05/27 11:28:06;;;;;;;;;;;;;;;;;;4983657;28;19922;-62
2023/05/27 11:30:31;;;;;;;;;;;;;;;;;;4984077;28;20517;-62
2023/05/27 11:32:57;;;;;;;;;;;;;;;;;;4969490;28;19929;-62
2023/05/27 11:35:22;;;;;;;;;;;;;;;;;;4968400;28;19921;-63
2023/05/27 11:37:47;;;;;;;;;;;;;;;;;;4985030;28;20382;-62
2023/05/27 11:40:20;;;;;;;;;;;;;;;;;;4969626;28;19926;-62
2023/05/27 11:42:49;;;;;;;;;;;;;;;;;;4983885;28;20412;-62
2023/05/27 11:45:16;;;;;;;;;;;;;;;;;;4984269;28;19933;-62
2023/05/27 11:47:42;;;;;;;;;;;;;;;;;;4981262;28;19918;-63
2023/05/27 11:50:10;;;;;;;;;;;;;;;;;;4968843;28;19937;-62
2023/05/27 11:52:38;;;;;;;;;;;;;;;;;;4967611;28;19928;-61
2023/05/27 11:55:07;;;;;;;;;;;;;;;;;;4984421;28;20231;-62
2023/05/27 11:57:32;;;;;;;;;;;;;;;;;;4977904;28;20005;-61
2023/05/27 11:59:57;;;;;;;;;;;;;;;;;;4968387;28;20304;-62
2023/05/27 12:02:25;;;;;;;;;;;;;;;;;;4984784;28;20045;-62
2023/05/27 12:04:56;;;;;;;;;;;;;;;;;;4969519;28;20599;-62
2023/05/27 12:07:21;;;;;;;;;;;;;;;;;;4968961;28;19976;-61
2023/05/27 12:09:49;;;;;;;;;;;;;;;;;;4968224;28;21818;-62
2023/05/27 12:12:14;;;;;;;;;;;;;;;;;;4969847;28;19929;-62
2023/05/27 12:14:42;;;;;;;;;;;;;;;;;;4966344;28;19922;-61
2023/05/27 12:17:07;;;;;;;;;;;;;;;;;;4970867;28;19922;-62
2023/05/27 12:19:34;;;;;;;;;;;;;;;;;;4970599;28;19929;-62
2023/05/27 12:22:02;;;;;;;;;;;;;;;;;;4975745;28;19972;-62
2023/05/27 12:24:27;;;;;;;;;;;;;;;;;;4969072;28;20021;-62
2023/05/27 12:26:55;;;;;;;;;;;;;;;;;;4974732;28;19925;-62
2023/05/27 12:29:22;;;;;;;;;;;;;;;;;;4967834;28;20366;-62
2023/05/27 12:31:47;;;;;;;;;;;;;;;;;;4968822;28;20035;-62
2023/05/27 12:34:15;;;;;;;;;;;;;;;;;;4967814;28;20012;-62
2023/05/27 12:36:43;;;;;;;;;;;;;;;;;;4974211;28;20131;-63
2023/05/27 12:39:08;;;;;;;;;;;;;;;;;;4958574;28;19937;-62
2023/05/27 12:41:33;;;;;;;;;;;;;;;;;;4966972;28;19995;-62
2023/05/27 12:43:59;;;;;;;;;;;;;;;;;;4970262;28;20316;-62
2023/05/27 12:46:24;;;;;;;;;;;;;;;;;;4983031;28;19925;-62
2023/05/27 12:48:49;;;;;;;;;;;;;;;;;;4959784;28;20004;-61
2023/05/27 12:51:17;;;;;;;;;;;;;;;;;;4963787;28;19933;-60
2023/05/27 12:53:48;;;;;;;;;;;;;;;;;;4979768;28;19917;-61
2023/05/27 12:56:16;;;;;;;;;;;;;;;;;;4982570;28;19924;-62
2023/05/27 12:58:41;;;;;;;;;;;;;;;;;;4983233;28;19922;-62
2023/05/27 13:01:06;;;;;;;;;;;;;;;;;;4968735;28;19996;-62
2023/05/27 13:03:32;;;;;;;;;;;;;;;;;;4983827;28;20541;-62
2023/05/27 13:06:00;;;;;;;;;;;;;;;;;;4969927;28;19918;-62
2023/05/27 13:08:28;;;;;;;;;;;;;;;;;;4967519;28;19988;-62
2023/05/27 13:10:53;;;;;;;;;;;;;;;;;;4973246;28;20370;-61
2023/05/27 13:13:22;;;;;;;;;;;;;;;;;;4958549;28;19921;-62
2023/05/27 13:15:47;;;;;;;;;;;;;;;;;;4970332;28;19952;-62
2023/05/27 13:18:12;;;;;;;;;;;;;;;;;;4963252;28;20289;-61
2023/05/27 13:20:38;;;;;;;;;;;;;;;;;;4987373;28;19921;-61
2023/05/27 13:23:06;;;;;;;;;;;;;;;;;;4972122;28;19925;-61
2023/05/27 13:25:31;;;;;;;;;;;;;;;;;;4987601;28;19953;-62
2023/05/27 13:27:59;;;;;;;;;;;;;;;;;;4971947;28;19932;-61
2023/05/27 13:30:25;;;;;;;;;;;;;;;;;;4988048;28;19926;-61
2023/05/27 13:32:50;;;;;;;;;;;;;;;;;;4987565;28;19917;-61
2023/05/27 13:35:16;;;;;;;;;;;;;;;;;;4986616;28;19927;-64
2023/05/27 13:37:41;;;;;;;;;;;;;;;;;;4960195;28;19934;-61
2023/05/27 13:40:06;;;;;;;;;;;;;;;;;;4985812;28;19925;-60
2023/05/27 13:42:32;;;;;;;;;;;;;;;;;;4960349;28;19925;-61
2023/05/27 13:45:03;;;;;;;;;;;;;;;;;;4987469;28;19928;-62
2023/05/27 13:47:28;;;;;;;;;;;;;;;;;;4974489;28;19954;-62
2023/05/27 13:49:56;;;;;;;;;;;;;;;;;;4972588;28;19925;-62
2023/05/27 13:52:24;;;;;;;;;;;;;;;;;;4971847;28;19929;-62
2023/05/27 13:54:52;;;;;;;;;;;;;;;;;;4970745;28;20063;-61
2023/05/27 13:57:17;;;;;;;;;;;;;;;;;;4973103;28;20449;-61
2023/05/27 13:59:45;;;;;;;;;;;;;;;;;;4984528;28;19918;-62
2023/05/27 14:02:11;;;;;;;;;;;;;;;;;;4971950;28;19980;-62
2023/05/27 14:04:38;;;;;;;;;;;;;;;;;;4960695;28;19914;-60
2023/05/27 14:07:04;;;;;;;;;;;;;;;;;;4971637;28;19919;-63
2023/05/27 14:09:29;;;;;;;;;;;;;;;;;;4971811;28;19929;-62
2023/05/27 14:11:57;;;;;;;;;;;;;;;;;;4971458;28;19932;-62
2023/05/27 14:14:22;;;;;;;;;;;;;;;;;;4971944;28;19925;-62
2023/05/27 14:16:50;;;;;;;;;;;;;;;;;;4976836;28;20401;-61
2023/05/27 14:19:15;;;;;;;;;;;;;;;;;;4971157;28;20305;-62
2023/05/27 14:21:41;;;;;;;;;;;;;;;;;;4969337;28;19922;-61
2023/05/27 14:24:06;;;;;;;;;;;;;;;;;;4961245;28;19972;-63
2023/05/27 14:26:31;;;;;;;;;;;;;;;;;;4974809;28;19943;-62
2023/05/27 14:28:56;;;;;;;;;;;;;;;;;;4972064;28;19921;-61
2023/05/27 14:31:25;;;;;;;;;;;;;;;;;;4979006;28;19967;-65
2023/05/27 14:33:50;;;;;;;;;;;;;;;;;;4979346;28;19922;-63
2023/05/27 14:36:15;;;;;;;;;;;;;;;;;;4970174;28;19992;-62
2023/05/27 14:38:43;;;;;;;;;;;;;;;;;;4968789;28;20057;-60
2023/05/27 14:41:11;;;;;;;;;;;;;;;;;;4967568;28;20385;-62
2023/05/27 14:43:39;;;;;;;;;;;;;;;;;;4970402;28;19957;-61
2023/05/27 14:46:07;;;;;;;;;;;;;;;;;;4970456;28;19928;-61
2023/05/27 14:48:35;;;;;;;;;;;;;;;;;;4968197;28;19944;-60
2023/05/27 14:51:00;;;;;;;;;;;;;;;;;;4968526;28;20212;-62
2023/05/27 14:53:28;;;;;;;;;;;;;;;;;;4967486;28;19968;-61
2023/05/27 14:55:55;;;;;;;;;;;;;;;;;;4967991;28;20366;-61
2023/05/27 14:58:20;;;;;;;;;;;;;;;;;;4969258;28;22228;-62
2023/05/27 15:00:50;;;;;;;;;;;;;;;;;;4967892;28;19922;-61
2023/05/27 15:03:15;;;;;;;;;;;;;;;;;;4968025;28;19960;-60
2023/05/27 15:05:40;;;;;;;;;;;;;;;;;;4943637;28;20057;-59
2023/05/27 15:08:14;;;;;;;;;;;;;;;;;;4964320;28;20372;-59
2023/05/27 15:10:40;;;;;;;;;;;;;;;;;;4969095;28;19926;-60
2023/05/27 15:13:05;;;;;;;;;;;;;;;;;;4969238;28;19918;-59
2023/05/27 15:15:31;;;;;;;;;;;;;;;;;;4953464;28;19993;-60
2023/05/27 15:17:56;;;;;;;;;;;;;;;;;;4969340;28;20005;-58
2023/05/27 15:20:21;;;;;;;;;;;;;;;;;;4966479;28;19977;-60
2023/05/27 15:22:46;;;;;;;;;;;;;;;;;;4968557;28;20263;-60
2023/05/27 15:25:14;;;;;;;;;;;;;;;;;;4967304;28;20439;-61
2023/05/27 15:27:40;;;;;;;;;;;;;;;;;;4966425;28;19941;-61
2023/05/27 15:30:07;;;;;;;;;;;;;;;;;;4954824;28;20412;-61
2023/05/27 15:32:32;;;;;;;;;;;;;;;;;;4970474;28;20477;-60
2023/05/27 15:34:58;;;;;;;;;;;;;;;;;;4971245;28;19922;-61
2023/05/27 15:37:24;;;;;;;;;;;;;;;;;;4974941;28;19930;-60
2023/05/27 15:39:49;;;;;;;;;;;;;;;;;;4969932;28;19972;-61
2023/05/27 15:42:15;;;;;;;;;;;;;;;;;;4985081;28;20457;-61
2023/05/27 15:44:40;;;;;;;;;;;;;;;;;;4965106;28;19930;-61
2023/05/27 15:47:05;;;;;;;;;;;;;;;;;;4967950;28;19996;-60
2023/05/27 15:49:31;;;;;;;;;;;;;;;;;;4985119;28;19929;-62
2023/05/27 15:51:56;;;;;;;;;;;;;;;;;;4967257;28;19925;-60
2023/05/27 15:54:21;;;;;;;;;;;;;;;;;;4977786;28;20000;-61
2023/05/27 15:56:46;;;;;;;;;;;;;;;;;;4984156;28;19936;-60
2023/05/27 15:59:12;;;;;;;;;;;;;;;;;;4984811;28;20115;-61
2023/05/27 16:01:37;;;;;;;;;;;;;;;;;;4970221;28;19922;-61
2023/05/27 16:04:06;;;;;;;;;;;;;;;;;;4969012;28;19955;-61
2023/05/27 16:06:34;;;;;;;;;;;;;;;;;;4968576;28;19922;-61
2023/05/27 16:08:59;;;;;;;;;;;;;;;;;;4968210;28;20562;-60
2023/05/27 16:11:24;;;;;;;;;;;;;;;;;;4967188;28;19925;-60
2023/05/27 16:13:52;;;;;;;;;;;;;;;;;;4975429;28;20021;-60
2023/05/27 16:16:18;;;;;;;;;;;;;;;;;;4984887;28;21502;-60
2023/05/27 16:18:46;;;;;;;;;;;;;;;;;;4967675;28;19922;-61
2023/05/27 16:21:12;;;;;;;;;;;;;;;;;;4968204;28;20827;-61
2023/05/27 16:23:40;;;;;;;;;;;;;;;;;;4967819;28;19964;-61
2023/05/27 16:26:06;;;;;;;;;;;;;;;;;;4984375;28;19921;-60
2023/05/27 16:28:32;;;;;;;;;;;;;;;;;;4968822;28;19922;-60
2023/05/27 16:30:57;;;;;;;;;;;;;;;;;;4984938;28;19925;-60
2023/05/27 16:33:25;;;;;;;;;;;;;;;;;;4973985;28;20337;-59
2023/05/27 16:35:51;;;;;;;;;;;;;;;;;;4968402;28;19924;-60
2023/05/27 16:38:16;;;;;;;;;;;;;;;;;;4983106;28;19937;-62
2023/05/27 16:40:41;;;;;;;;;;;;;;;;;;4967090;28;19918;-62
2023/05/27 16:43:09;;;;;;;;;;;;;;;;;;4967435;28;19926;-59
2023/05/27 16:45:37;;;;;;;;;;;;;;;;;;4958542;28;19929;-59
2023/05/27 16:48:06;;;;;;;;;;;;;;;;;;4970168;28;20037;-60
2023/05/27 16:50:31;;;;;;;;;;;;;;;;;;4971856;28;20010;-60
2023/05/27 16:52:57;;;;;;;;;;;;;;;;;;4969802;28;19922;-59
2023/05/27 16:55:25;;;;;;;;;;;;;;;;;;4970962;28;20481;-60
2023/05/27 16:57:50;;;;;;;;;;;;;;;;;;4970748;28;19922;-61
2023/05/27 17:00:15;;;;;;;;;;;;;;;;;;4972147;28;20285;-61